createdAt,value
2019-01-27T00:02:25.859Z,7.30
2019-01-27T00:05:18.480Z,7.30
2019-01-27T00:08:13.482Z,7.30
2019-01-27T00:11:00.162Z,7.30
2019-01-27T00:13:53.759Z,7.30
2019-01-27T00:16:43.712Z,7.30
2019-01-27T00:19:35.670Z,7.30
2019-01-27T00:22:25.898Z,7.30
2019-01-27T00:25:15.682Z,7.40
2019-01-27T00:28:08.100Z,7.30
2019-01-27T00:30:59.125Z,7.40
2019-01-27T00:33:53.855Z,7.30
2019-01-27T00:36:44.597Z,7.30
2019-01-27T00:39:34.946Z,7.30
2019-01-27T00:42:24.818Z,7.30
2019-01-27T00:45:16.392Z,7.30
2019-01-27T00:48:06.418Z,7.30
2019-01-27T00:50:57.040Z,7.40
2019-01-27T00:53:46.992Z,7.40
2019-01-27T00:56:37.058Z,7.40
2019-01-27T00:59:26.411Z,7.30
2019-01-27T01:02:16.551Z,7.40
2019-01-27T01:05:07.271Z,7.30
2019-01-27T01:07:57.138Z,7.40
2019-01-27T01:10:47.033Z,7.40
2019-01-27T01:13:36.831Z,7.40
2019-01-27T01:16:26.881Z,7.30
2019-01-27T01:19:16.745Z,7.30
2019-01-27T01:22:06.641Z,7.40
2019-01-27T01:24:56.468Z,7.40
2019-01-27T01:27:46.699Z,7.40
2019-01-27T01:30:36.898Z,7.40
2019-01-27T01:33:26.902Z,7.40
2019-01-27T01:36:16.758Z,7.40
2019-01-27T01:39:09.097Z,7.40
2019-01-27T01:41:58.793Z,7.40
2019-01-27T01:44:48.777Z,7.40
2019-01-27T01:47:38.770Z,7.40
2019-01-27T01:50:28.742Z,7.40
2019-01-27T01:53:18.617Z,7.50
2019-01-27T01:56:08.351Z,7.50
2019-01-27T01:58:58.411Z,7.50
2019-01-27T02:01:48.471Z,7.50
2019-01-27T02:04:38.240Z,7.50
2019-01-27T02:07:28.029Z,7.50
2019-01-27T02:10:19.528Z,7.60
2019-01-27T02:13:09.438Z,7.60
2019-01-27T02:16:09.690Z,7.50
2019-01-27T02:19:00.761Z,7.50
2019-01-27T02:21:50.737Z,7.60
2019-01-27T02:24:39.997Z,7.60
2019-01-27T02:27:29.382Z,7.70
2019-01-27T02:30:20.080Z,7.60
2019-01-27T02:33:10.177Z,7.60
2019-01-27T02:36:00.137Z,7.60
2019-01-27T02:38:50.322Z,7.70
2019-01-27T02:41:40.109Z,7.70
2019-01-27T02:44:30.305Z,7.70
2019-01-27T02:47:20.103Z,7.70
2019-01-27T02:50:10.120Z,7.70
2019-01-27T02:52:59.781Z,7.70
2019-01-27T02:55:49.869Z,7.70
2019-01-27T02:58:39.917Z,7.70
2019-01-27T03:01:29.552Z,7.70
2019-01-27T03:04:19.395Z,7.70
2019-01-27T03:07:19.402Z,7.80
2019-01-27T03:10:12.752Z,7.80
2019-01-27T03:13:02.670Z,7.70
2019-01-27T03:15:52.616Z,7.70
2019-01-27T03:18:42.350Z,7.80
2019-01-27T03:21:32.535Z,7.80
2019-01-27T03:24:22.296Z,7.80
2019-01-27T03:27:12.259Z,7.80
2019-01-27T03:30:02.074Z,7.80
2019-01-27T03:32:52.182Z,7.80
2019-01-27T03:35:43.052Z,7.80
2019-01-27T03:38:33.218Z,7.80
2019-01-27T03:41:24.338Z,7.80
2019-01-27T03:44:14.397Z,7.80
2019-01-27T03:47:04.297Z,7.80
2019-01-27T03:49:54.587Z,7.90
2019-01-27T03:52:45.616Z,7.80
2019-01-27T03:55:35.590Z,7.90
2019-01-27T03:58:25.156Z,7.80
2019-01-27T04:01:15.059Z,7.90
2019-01-27T04:04:06.216Z,7.90
2019-01-27T04:06:56.275Z,7.90
2019-01-27T04:09:46.021Z,7.80
2019-01-27T04:12:35.779Z,7.90
2019-01-27T04:15:26.384Z,7.80
2019-01-27T04:18:16.227Z,7.80
2019-01-27T04:21:06.478Z,7.80
2019-01-27T04:23:56.358Z,7.90
2019-01-27T04:26:46.137Z,7.90
2019-01-27T04:29:37.116Z,7.90
2019-01-27T04:32:27.231Z,7.80
2019-01-27T04:35:17.968Z,7.90
2019-01-27T04:38:09.990Z,7.90
2019-01-27T04:41:00.895Z,7.80
2019-01-27T04:43:51.548Z,7.80
2019-01-27T04:46:41.706Z,7.80
2019-01-27T04:49:32.108Z,7.80
2019-01-27T04:52:23.290Z,7.80
2019-01-27T04:55:13.958Z,7.80
2019-01-27T04:58:04.092Z,7.80
2019-01-27T05:00:53.734Z,7.70
2019-01-27T05:03:54.353Z,7.70
2019-01-27T05:06:47.003Z,7.70
2019-01-27T05:09:38.137Z,7.70
2019-01-27T05:12:29.940Z,7.70
2019-01-27T05:15:23.778Z,7.70
2019-01-27T05:18:15.775Z,7.70
2019-01-27T05:21:07.079Z,7.70
2019-01-27T05:23:58.138Z,7.70
2019-01-27T05:26:48.639Z,7.70
2019-01-27T05:29:39.353Z,7.70
2019-01-27T05:32:30.565Z,7.60
2019-01-27T05:35:21.646Z,7.70
2019-01-27T05:38:13.242Z,7.70
2019-01-27T05:41:04.632Z,7.60
2019-01-27T05:43:59.120Z,7.60
2019-01-27T05:46:48.921Z,7.60
2019-01-27T05:49:39.718Z,7.60
2019-01-27T05:52:30.910Z,7.60
2019-01-27T05:55:22.252Z,7.60
2019-01-27T05:58:12.846Z,7.60
2019-01-27T06:01:03.208Z,7.60
2019-01-27T06:03:54.500Z,7.60
2019-01-27T06:06:46.458Z,7.60
2019-01-27T06:09:36.377Z,7.60
2019-01-27T06:12:26.271Z,7.60
2019-01-27T06:15:16.210Z,7.60
2019-01-27T06:18:06.229Z,7.60
2019-01-27T06:20:56.461Z,7.60
2019-01-27T06:23:46.698Z,7.60
2019-01-27T06:26:36.685Z,7.60
2019-01-27T06:29:26.970Z,7.60
2019-01-27T06:32:34.467Z,7.60
2019-01-27T06:35:25.413Z,7.60
2019-01-27T06:38:15.659Z,7.60
2019-01-27T06:41:05.910Z,7.50
2019-01-27T06:43:56.627Z,7.50
2019-01-27T06:46:46.353Z,7.50
2019-01-27T06:49:36.188Z,7.50
2019-01-27T06:52:26.519Z,7.50
2019-01-27T06:55:16.602Z,7.50
2019-01-27T06:58:06.751Z,7.50
2019-01-27T07:01:23.478Z,7.40
2019-01-27T07:04:34.864Z,7.40
2019-01-27T07:07:55.777Z,7.40
2019-01-27T07:11:04.394Z,7.40
2019-01-27T07:14:17.419Z,7.40
2019-01-27T07:17:34.543Z,7.40
2019-01-27T07:20:54.647Z,7.30
2019-01-27T07:24:24.049Z,7.30
2019-01-27T07:27:32.414Z,7.30
2019-01-27T07:30:51.759Z,7.30
2019-01-27T07:34:07.839Z,7.30
2019-01-27T07:37:21.187Z,7.30
2019-01-27T07:40:27.464Z,7.30
2019-01-27T07:43:25.683Z,7.30
2019-01-27T07:46:27.999Z,7.30
2019-01-27T07:49:37.467Z,7.30
2019-01-27T07:52:46.251Z,7.30
2019-01-27T07:55:59.260Z,7.30
2019-01-27T07:58:56.900Z,7.30
2019-01-27T08:02:05.462Z,7.30
2019-01-27T08:05:11.132Z,7.40
2019-01-27T08:08:20.942Z,7.40
2019-01-27T08:11:34.812Z,7.40
2019-01-27T08:14:42.835Z,7.50
2019-01-27T08:17:55.107Z,7.50
2019-01-27T08:21:13.966Z,7.50
2019-01-27T08:24:18.755Z,7.50
2019-01-27T08:27:28.063Z,7.50
2019-01-27T08:30:37.885Z,7.60
2019-01-27T08:33:48.062Z,7.60
2019-01-27T08:37:06.699Z,7.60
2019-01-27T08:40:25.560Z,7.50
2019-01-27T08:43:49.947Z,7.60
2019-01-27T08:46:44.929Z,7.60
2019-01-27T08:49:36.070Z,7.60
2019-01-27T08:52:26.360Z,7.60
2019-01-27T08:55:16.969Z,7.60
2019-01-27T08:58:06.944Z,7.60
2019-01-27T09:01:03.269Z,7.70
2019-01-27T09:04:01.959Z,7.70
2019-01-27T09:07:26.248Z,7.70
2019-01-27T09:10:54.119Z,7.70
2019-01-27T09:14:03.528Z,7.70
2019-01-27T09:17:12.080Z,7.70
2019-01-27T09:20:20.189Z,7.70
2019-01-27T09:23:31.370Z,7.70
2019-01-27T09:26:43.268Z,7.70
2019-01-27T09:29:55.061Z,7.70
2019-01-27T09:33:02.146Z,7.80
2019-01-27T09:36:09.642Z,7.80
2019-01-27T09:39:17.545Z,7.80
2019-01-27T09:42:25.450Z,7.80
2019-01-27T09:46:05.083Z,7.80
2019-01-27T09:48:55.287Z,7.80
2019-01-27T09:52:04.679Z,7.80
2019-01-27T09:55:16.760Z,7.80
2019-01-27T09:58:24.975Z,7.80
2019-01-27T10:01:46.260Z,7.90
2019-01-27T10:05:13.724Z,7.90
2019-01-27T10:08:22.551Z,7.90
2019-01-27T10:11:40.282Z,7.90
2019-01-27T10:14:57.222Z,8.00
2019-01-27T10:18:16.605Z,8.00
2019-01-27T10:21:25.423Z,8.00
2019-01-27T10:24:49.916Z,8.00
2019-01-27T10:28:02.239Z,8.00
2019-01-27T10:31:11.551Z,8.00
2019-01-27T10:34:36.469Z,8.00
2019-01-27T10:37:42.348Z,8.00
2019-01-27T10:41:00.774Z,8.00
2019-01-27T10:44:05.711Z,8.10
2019-01-27T10:47:11.199Z,8.00
2019-01-27T10:50:19.237Z,8.10
2019-01-27T10:53:20.970Z,8.10
2019-01-27T10:56:30.744Z,8.10
2019-01-27T10:59:30.968Z,8.10
2019-01-27T11:02:39.591Z,8.20
2019-01-27T11:05:57.635Z,8.20
2019-01-27T11:09:04.880Z,8.20
2019-01-27T11:12:20.675Z,8.20
2019-01-27T11:15:23.401Z,8.20
2019-01-27T11:18:30.997Z,8.20
2019-01-27T11:21:46.375Z,8.20
2019-01-27T11:25:01.138Z,8.20
2019-01-27T11:28:21.637Z,8.20
2019-01-27T11:31:30.464Z,8.10
2019-01-27T11:34:54.342Z,8.20
2019-01-27T11:37:56.529Z,8.20
2019-01-27T11:41:04.244Z,8.10
2019-01-27T11:44:21.046Z,8.20
2019-01-27T11:47:31.527Z,8.20
2019-01-27T11:50:26.263Z,8.20
2019-01-27T11:53:37.087Z,8.20
2019-01-27T11:56:27.745Z,8.20
2019-01-27T11:59:17.983Z,8.30
2019-01-27T12:02:08.735Z,8.30
2019-01-27T12:04:59.263Z,8.30
2019-01-27T12:07:49.277Z,8.40
2019-01-27T12:10:39.690Z,8.30
2019-01-27T12:13:31.998Z,8.30
2019-01-27T12:16:21.818Z,8.30
2019-01-27T12:19:11.949Z,8.30
2019-01-27T12:22:01.919Z,8.40
2019-01-27T12:24:52.031Z,8.30
2019-01-27T12:27:42.289Z,8.40
2019-01-27T12:30:32.088Z,8.30
2019-01-27T12:33:22.058Z,8.40
2019-01-27T12:36:11.981Z,8.40
2019-01-27T12:39:01.983Z,8.40
2019-01-27T12:41:53.913Z,8.40
2019-01-27T12:44:44.162Z,8.40
2019-01-27T12:47:34.439Z,8.40
2019-01-27T12:50:24.993Z,8.50
2019-01-27T12:53:15.575Z,8.50
2019-01-27T12:56:06.212Z,8.50
2019-01-27T12:59:00.559Z,8.60
2019-01-27T13:01:51.144Z,8.60
2019-01-27T13:04:42.191Z,8.60
2019-01-27T13:07:32.849Z,8.60
2019-01-27T13:10:22.966Z,8.60
2019-01-27T13:13:13.544Z,8.70
2019-01-27T13:16:04.063Z,8.70
2019-01-27T13:18:53.770Z,8.80
2019-01-27T13:21:43.795Z,8.80
2019-01-27T13:24:33.421Z,8.80
2019-01-27T13:27:23.479Z,8.80
2019-01-27T13:30:17.151Z,8.80
2019-01-27T13:33:07.582Z,8.80
2019-01-27T13:35:58.259Z,8.80
2019-01-27T13:38:51.210Z,8.80
2019-01-27T13:41:41.085Z,8.80
2019-01-27T13:44:31.311Z,8.80
2019-01-27T13:47:20.948Z,8.80
2019-01-27T13:50:11.615Z,8.80
2019-01-27T13:53:02.057Z,8.70
2019-01-27T13:55:56.347Z,8.70
2019-01-27T13:58:46.473Z,8.70
2019-01-27T14:01:36.690Z,8.70
2019-01-27T14:04:26.806Z,8.70
2019-01-27T14:07:17.553Z,8.70
2019-01-27T14:10:10.711Z,8.70
2019-01-27T14:13:01.405Z,8.70
2019-01-27T14:15:51.124Z,8.70
2019-01-27T14:18:41.360Z,8.70
2019-01-27T14:21:32.156Z,8.70
2019-01-27T14:24:25.985Z,8.70
2019-01-27T14:27:16.285Z,8.70
2019-01-27T14:30:08.510Z,8.70
2019-01-27T14:32:58.507Z,8.70
2019-01-27T14:35:48.411Z,8.70
2019-01-27T14:38:38.768Z,8.60
2019-01-27T14:41:29.139Z,8.70
2019-01-27T14:44:19.260Z,8.70
2019-01-27T14:47:10.283Z,8.70
2019-01-27T14:50:00.261Z,8.70
2019-01-27T14:52:50.698Z,8.70
2019-01-27T14:55:40.873Z,8.70
2019-01-27T14:58:30.975Z,8.70
2019-01-27T15:04:46.069Z,8.70
2019-01-27T15:07:41.709Z,8.70
2019-01-27T15:10:31.860Z,8.70
2019-01-27T15:13:26.219Z,8.70
2019-01-27T15:16:19.952Z,8.70
2019-01-27T15:19:13.007Z,8.70
2019-01-27T15:22:03.128Z,8.70
2019-01-27T15:24:52.708Z,8.70
2019-01-27T15:27:42.980Z,8.70
2019-01-27T15:30:33.733Z,8.70
2019-01-27T15:33:25.377Z,8.70
2019-01-27T15:36:15.936Z,8.70
2019-01-27T15:39:10.579Z,8.70
2019-01-27T15:42:00.841Z,8.70
2019-01-27T15:44:50.537Z,8.70
2019-01-27T15:47:40.300Z,8.70
2019-01-27T15:50:31.672Z,8.70
2019-01-27T15:53:21.802Z,8.70
2019-01-27T15:56:11.652Z,8.70
2019-01-27T15:59:01.371Z,8.70
2019-01-27T16:01:51.607Z,8.70
2019-01-27T16:04:41.201Z,8.70
2019-01-27T16:07:31.299Z,8.70
2019-01-27T16:10:23.112Z,8.70
2019-01-27T16:13:14.740Z,8.70
2019-01-27T16:16:09.539Z,8.70
2019-01-27T16:18:59.514Z,8.70
2019-01-27T16:21:49.217Z,8.70
2019-01-27T16:24:39.422Z,8.70
2019-01-27T16:27:30.010Z,8.70
2019-01-27T16:30:34.826Z,8.70
2019-01-27T16:33:32.290Z,8.60
2019-01-27T16:36:21.570Z,8.60
2019-01-27T16:39:12.576Z,8.60
2019-01-27T16:42:02.674Z,8.60
2019-01-27T16:44:52.894Z,8.60
2019-01-27T16:47:43.171Z,8.70
2019-01-27T16:50:33.476Z,8.60
2019-01-27T16:53:23.009Z,8.70
2019-01-27T16:56:13.873Z,8.70
2019-01-27T16:59:04.058Z,8.70
2019-01-27T17:01:59.047Z,8.70
2019-01-27T17:04:48.718Z,8.70
2019-01-27T17:07:39.895Z,8.70
2019-01-27T17:10:39.698Z,8.60
2019-01-27T17:13:33.681Z,8.60
2019-01-27T17:16:25.023Z,8.60
2019-01-27T17:19:15.700Z,8.70
2019-01-27T17:22:07.016Z,8.70
2019-01-27T17:24:56.872Z,8.60
2019-01-27T17:27:47.009Z,8.60
2019-01-27T17:30:36.745Z,8.70
2019-01-27T17:33:27.393Z,8.70
2019-01-27T17:36:17.940Z,8.70
2019-01-27T17:39:11.423Z,8.70
2019-01-27T17:42:03.510Z,8.60
2019-01-27T17:44:55.091Z,8.60
2019-01-27T17:47:45.831Z,8.60
2019-01-27T17:50:36.491Z,8.60
2019-01-27T17:53:26.826Z,8.70
2019-01-27T17:56:16.673Z,8.70
2019-01-27T17:59:31.312Z,8.60
2019-01-27T18:02:28.877Z,8.60
2019-01-27T18:05:39.347Z,8.70
2019-01-27T18:08:35.992Z,8.70
2019-01-27T18:11:41.239Z,8.70
2019-01-27T18:14:35.684Z,8.70
2019-01-27T18:17:28.292Z,8.60
2019-01-27T18:20:20.357Z,8.60
2019-01-27T18:23:12.250Z,8.60
2019-01-27T18:26:02.867Z,8.60
2019-01-27T18:28:53.202Z,8.60
2019-01-27T18:31:44.183Z,8.60
2019-01-27T18:34:35.859Z,8.60
2019-01-27T18:37:26.668Z,8.60
2019-01-27T18:40:19.221Z,8.60
2019-01-27T18:43:09.671Z,8.60
2019-01-27T18:45:59.616Z,8.60
2019-01-27T18:48:49.941Z,8.60
2019-01-27T18:51:39.791Z,8.60
2019-01-27T18:54:51.697Z,8.60
2019-01-27T18:58:00.607Z,8.60
2019-01-27T19:01:12.135Z,8.60
2019-01-27T19:04:15.471Z,8.60
2019-01-27T19:07:27.498Z,8.60
2019-01-27T19:10:29.209Z,8.60
2019-01-27T19:13:24.489Z,8.60
2019-01-27T19:16:41.686Z,8.60
2019-01-27T19:19:53.998Z,8.60
2019-01-27T19:23:21.118Z,8.60
2019-01-27T19:26:20.863Z,8.60
2019-01-27T19:29:29.963Z,8.60
2019-01-27T19:32:32.577Z,8.60
2019-01-27T19:35:50.520Z,8.60
2019-01-27T19:38:59.762Z,8.60
2019-01-27T19:42:04.769Z,8.50
2019-01-27T19:45:12.588Z,8.60
2019-01-27T19:48:27.559Z,8.60
2019-01-27T19:51:45.193Z,8.50
2019-01-27T19:54:51.677Z,8.50
2019-01-27T19:57:56.841Z,8.50
2019-01-27T20:00:58.652Z,8.50
2019-01-27T20:04:08.439Z,8.50
2019-01-27T20:07:12.868Z,8.50
2019-01-27T20:10:17.077Z,8.40
2019-01-27T20:13:14.577Z,8.40
2019-01-27T20:16:23.610Z,8.40
2019-01-27T20:19:38.468Z,8.40
2019-01-27T20:22:44.471Z,8.40
2019-01-27T20:25:49.166Z,8.40
2019-01-27T20:29:06.220Z,8.40
2019-01-27T20:32:02.111Z,8.40
2019-01-27T20:35:13.633Z,8.40
2019-01-27T20:38:35.669Z,8.40
2019-01-27T20:41:37.735Z,8.40
2019-01-27T20:44:33.455Z,8.30
2019-01-27T20:47:55.385Z,8.40
2019-01-27T20:51:04.108Z,8.30
2019-01-27T20:54:04.337Z,8.30
2019-01-27T20:57:19.305Z,8.20
2019-01-27T21:00:31.713Z,8.20
2019-01-27T21:03:46.276Z,8.20
2019-01-27T21:06:49.980Z,8.10
2019-01-27T21:09:54.607Z,8.10
2019-01-27T21:13:00.054Z,8.00
2019-01-27T21:16:11.852Z,7.90
2019-01-27T21:19:06.853Z,7.90
2019-01-27T21:21:56.399Z,7.70
2019-01-27T21:24:46.146Z,7.70
2019-01-27T21:27:36.111Z,7.60
2019-01-27T21:30:25.977Z,7.60
2019-01-27T21:33:16.160Z,7.60
2019-01-27T21:36:06.167Z,7.60
2019-01-27T21:38:56.251Z,7.50
2019-01-27T21:41:46.590Z,7.50
2019-01-27T21:44:36.552Z,7.40
2019-01-27T21:47:26.432Z,7.40
2019-01-27T21:50:18.093Z,7.40
2019-01-27T21:53:08.132Z,7.40
2019-01-27T21:55:57.991Z,7.40
2019-01-27T21:58:48.113Z,7.40
2019-01-27T22:01:37.930Z,7.40
2019-01-27T22:04:27.938Z,7.40
2019-01-27T22:07:18.018Z,7.40
2019-01-27T22:10:08.842Z,7.40
2019-01-27T22:12:58.808Z,7.30
2019-01-27T22:15:48.818Z,7.30
2019-01-27T22:18:38.783Z,7.30
2019-01-27T22:21:28.568Z,7.30
2019-01-27T22:24:18.718Z,7.30
2019-01-27T22:27:08.831Z,7.30
2019-01-27T22:29:58.878Z,7.20
2019-01-27T22:32:48.599Z,7.20
2019-01-27T22:35:38.712Z,7.30
2019-01-27T22:38:28.689Z,7.20
2019-01-27T22:41:18.571Z,7.20
2019-01-27T22:44:08.637Z,7.20
2019-01-27T22:46:58.561Z,7.20
2019-01-27T22:49:48.398Z,7.20
2019-01-27T22:52:38.479Z,7.10
2019-01-27T22:55:28.710Z,7.00
2019-01-27T22:58:21.978Z,7.00
2019-01-27T23:01:16.571Z,7.00
2019-01-27T23:04:07.810Z,6.90
2019-01-27T23:06:57.654Z,6.90
2019-01-27T23:09:47.201Z,6.70
2019-01-27T23:12:37.379Z,6.70
2019-01-27T23:15:27.179Z,6.60
2019-01-27T23:18:17.300Z,6.50
2019-01-27T23:21:06.971Z,6.50
2019-01-27T23:23:56.887Z,6.40
2019-01-27T23:26:46.218Z,6.40
2019-01-27T23:29:36.272Z,6.30
2019-01-27T23:32:26.663Z,6.30
2019-01-27T23:35:20.442Z,6.20
2019-01-27T23:38:11.144Z,6.20
2019-01-27T23:41:01.768Z,6.20
2019-01-27T23:43:52.568Z,6.20
2019-01-27T23:46:43.406Z,6.10
2019-01-27T23:49:34.130Z,6.20
2019-01-27T23:52:23.918Z,6.00
2019-01-27T23:55:13.952Z,5.90
2019-01-27T23:58:04.201Z,6.00
